Time;durP1;ratioP1;P1;durP2;ratioP2;P2;SDS_P1;SDS_P2;PMS_P1;PMS_P2;Temp;Humidity;BMP_temperature;BMP_pressure;BME280_temperature;BME280_humidity;BME280_pressure;Samples;Min_cycle;Max_cycle;Signal;HPM_P1;HPM_P2
2022/01/03 00:01:18;;;;;;;28.30;19.60;;;;;;;2.26;94.36;99035.19;5014165;28;20210;-67
2022/01/03 00:03:45;;;;;;;29.27;20.50;;;;;;;2.42;94.29;99032.63;5022704;28;20029;-67
2022/01/03 00:06:11;;;;;;;27.55;20.40;;;;;;;2.40;94.13;99044.72;5048562;28;20025;-67
2022/01/03 00:08:40;;;;;;;28.20;20.40;;;;;;;2.06;94.83;98992.66;5023611;28;20029;-67
2022/01/03 00:11:05;;;;;;;29.57;19.80;;;;;;;2.44;94.97;99045.38;5019425;28;20086;-67
2022/01/03 00:13:31;;;;;;;29.50;19.67;;;;;;;2.40;94.93;99037.00;5019485;28;20034;-67
2022/01/03 00:15:56;;;;;;;28.88;18.83;;;;;;;2.56;93.64;99054.16;5031361;28;20544;-67
2022/01/03 00:18:23;;;;;;;27.45;19.20;;;;;;;2.49;93.69;99028.00;4997572;28;20029;-67
2022/01/03 00:21:13;;;;;;;25.08;18.58;;;;;;;2.41;92.39;99030.97;5020794;28;20033;-68
2022/01/03 00:23:39;;;;;;;;;;;;;;;2.58;92.30;99037.75;5005306;28;20356;-67
2022/01/03 00:26:08;;;;;;;23.80;17.05;;;;;;;2.37;92.04;98990.97;5019383;28;19921;-67
2022/01/03 00:28:39;;;;;;;24.83;17.35;;;;;;;2.61;92.05;99027.31;5054856;28;20025;-67
2022/01/03 00:31:05;;;;;;;25.10;18.45;;;;;;;2.31;92.90;99040.06;5052581;28;20038;-67
2022/01/03 00:33:32;;;;;;;26.00;18.52;;;;;;;2.45;92.24;99045.28;4965336;28;20556;-67
2022/01/03 00:36:00;;;;;;;27.90;18.67;;;;;;;2.21;91.58;98997.84;5018720;28;20026;-68
2022/01/03 00:38:34;;;;;;;24.05;17.30;;;;;;;2.53;91.28;99032.03;5050497;28;20042;-66
2022/01/03 00:41:00;;;;;;;25.38;16.95;;;;;;;2.45;91.39;99019.63;5047771;28;20100;-67
2022/01/03 00:43:27;;;;;;;27.23;18.73;;;;;;;2.44;91.08;99028.22;5009581;28;20029;-67
2022/01/03 00:45:53;;;;;;;25.73;17.27;;;;;;;2.44;91.26;99028.22;5016070;28;20376;-68
2022/01/03 00:48:19;;;;;;;28.80;18.60;;;;;;;2.45;90.85;99029.06;5041739;28;20480;-68
2022/01/03 00:50:46;;;;;;;25.55;18.08;;;;;;;2.39;91.63;99025.09;5019017;28;20025;-68
2022/01/03 00:53:12;;;;;;;25.60;18.17;;;;;;;2.45;94.13;99021.38;5012443;28;20628;-68
2022/01/03 00:55:48;;;;;;;29.58;19.42;;;;;;;2.46;93.29;99016.16;5014812;28;20021;-66
2022/01/03 00:58:17;;;;;;;27.25;18.38;;;;;;;2.33;92.74;98999.75;5015160;28;20037;-67
2022/01/03 01:00:45;;;;;;;25.55;18.67;;;;;;;2.45;93.39;99019.63;5002321;28;20363;-67
2022/01/03 01:03:19;;;;;;;24.33;18.02;;;;;;;2.06;92.22;99012.31;5049369;28;20040;-66
2022/01/03 01:05:47;;;;;;;26.45;17.85;;;;;;;2.01;93.38;99001.47;5005823;28;20699;-66
2022/01/03 01:08:20;;;;;;;25.20;17.88;;;;;;;2.26;92.61;98989.00;5025334;28;20396;-67
2022/01/03 01:10:45;;;;;;;22.90;16.98;;;;;;;2.29;92.54;99004.22;5028870;28;20076;-67
2022/01/03 01:13:14;;;;;;;24.45;17.75;;;;;;;2.23;92.78;99024.28;5004177;28;20025;-67
2022/01/03 01:15:40;;;;;;;23.60;16.75;;;;;;;2.34;91.83;99014.25;5035662;28;20029;-66
2022/01/03 01:18:06;;;;;;;26.40;18.02;;;;;;;2.27;91.90;99008.63;5018523;28;20056;-67
2022/01/03 01:20:33;;;;;;;28.75;18.83;;;;;;;2.39;91.17;99008.84;5018019;28;20559;-67
2022/01/03 01:22:59;;;;;;;28.83;19.95;;;;;;;2.21;91.60;99018.38;5015921;28;20017;-66
2022/01/03 01:27:51;;;;;;;26.95;18.85;;;;;;;2.21;91.57;99026.91;5020574;28;20021;-67
2022/01/03 01:30:19;;;;;;;26.60;18.30;;;;;;;2.17;91.92;99012.56;5002829;28;20065;-67
2022/01/03 01:32:51;;;;;;;27.23;18.25;;;;;;;2.24;91.29;99013.91;5034234;28;20040;-67
2022/01/03 01:35:19;;;;;;;25.33;17.38;;;;;;;2.12;91.19;99009.44;5009865;28;20074;-66
2022/01/03 01:37:46;;;;;;;24.90;18.50;;;;;;;2.24;90.58;99020.78;5013702;28;20050;-65
2022/01/03 01:40:11;;;;;;;24.15;17.77;;;;;;;2.15;90.44;99016.97;4997450;28;20415;-67
2022/01/03 01:42:43;;;;;;;21.50;16.25;;;;;;;2.20;90.44;99009.03;5017913;28;20029;-67
2022/01/03 01:45:09;;;;;;;24.02;18.05;;;;;;;1.92;91.69;99010.50;5048456;28;20040;-66
2022/01/03 01:47:38;;;;;;;25.92;18.90;;;;;;;1.76;91.77;98997.63;5012672;28;20053;-66
2022/01/03 01:50:04;;;;;;;25.50;17.37;;;;;;;1.71;92.33;99013.25;5036352;28;20033;-66
2022/01/03 01:52:34;;;;;;;22.52;16.73;;;;;;;1.85;92.42;99017.66;5037266;28;20811;-67
2022/01/03 01:55:02;;;;;;;23.63;17.30;;;;;;;1.96;92.22;99016.28;5018322;28;20115;-66
2022/01/03 01:57:53;;;;;;;23.25;16.52;;;;;;;1.96;91.79;98996.59;5041552;28;20028;-66
2022/01/03 02:00:18;;;;;;;24.65;16.98;;;;;;;1.77;91.63;98983.06;5049739;28;20026;-66
2022/01/03 02:02:43;;;;;;;24.50;17.70;;;;;;;1.80;92.38;99011.13;5018811;28;20071;-67
2022/01/03 02:05:27;;;;;;;24.30;16.88;;;;;;;1.60;91.96;99010.41;5015645;28;20037;-67
2022/01/03 02:08:08;;;;;;;22.92;15.90;;;;;;;1.84;92.45;98992.09;5030205;28;20048;-67
2022/01/03 02:10:45;;;;;;;24.90;16.40;;;;;;;1.61;91.94;98948.00;5018713;28;20033;-68
2022/01/03 02:13:15;;;;;;;23.00;15.43;;;;;;;1.60;92.76;98984.78;5046220;28;20061;-68
2022/01/03 02:15:45;;;;;;;22.38;15.50;;;;;;;1.72;92.46;99003.84;5014598;28;20083;-68
2022/01/03 02:18:11;;;;;;;25.98;16.60;;;;;;;1.91;91.41;99007.09;5018828;28;20032;-68
2022/01/03 02:20:37;;;;;;;23.42;15.48;;;;;;;1.82;91.23;98988.78;5015530;28;20462;-67
2022/01/03 02:23:03;;;;;;;21.30;15.00;;;;;;;1.86;91.53;98975.75;4993989;28;20052;-67
2022/01/03 02:25:28;;;;;;;21.00;14.52;;;;;;;1.97;90.56;98972.63;5010262;28;20025;-68
2022/01/03 02:27:55;;;;;;;23.25;14.85;;;;;;;1.72;90.62;98971.31;5017017;28;20026;-67
2022/01/03 02:30:25;;;;;;;23.45;16.63;;;;;;;1.72;90.73;98983.31;5011261;28;20025;-67
2022/01/03 02:32:51;;;;;;;21.02;15.25;;;;;;;1.66;91.61;98986.19;5039730;28;20026;-67
2022/01/03 02:35:17;;;;;;;21.60;15.32;;;;;;;1.64;92.93;98970.06;5018649;28;20550;-68
2022/01/03 02:37:45;;;;;;;22.35;15.45;;;;;;;1.42;93.82;98940.41;4996106;28;20022;-67
2022/01/03 02:40:11;;;;;;;22.88;15.93;;;;;;;1.69;92.83;98986.03;4990727;28;20526;-67
2022/01/03 02:42:37;;;;;;;21.65;15.48;;;;;;;1.49;93.03;98943.50;4997874;28;20045;-67
2022/01/03 02:45:20;;;;;;;23.45;15.80;;;;;;;1.62;92.71;98994.94;5015557;28;20511;-67
2022/01/03 02:47:49;;;;;;;21.63;15.05;;;;;;;1.60;92.84;98973.69;5018050;28;20064;-68
2022/01/03 02:50:16;;;;;;;24.85;17.00;;;;;;;1.52;93.10;98972.34;5006114;28;20520;-68
2022/01/03 02:52:42;;;;;;;22.08;14.85;;;;;;;1.61;92.68;98968.50;5017532;28;20022;-67
2022/01/03 02:55:08;;;;;;;22.52;15.35;;;;;;;1.31;93.02;98927.31;5022196;28;20103;-67
2022/01/03 02:57:35;;;;;;;20.15;14.10;;;;;;;1.67;92.45;98962.22;5019238;28;20091;-68
2022/01/03 03:00:03;;;;;;;22.23;15.48;;;;;;;1.72;91.67;98979.00;5057320;28;20017;-68
2022/01/03 03:02:28;;;;;;;20.58;14.52;;;;;;;1.55;92.38;98968.78;5008521;28;20163;-68
2022/01/03 03:04:59;;;;;;;22.50;14.70;;;;;;;1.35;92.45;98928.81;5044837;28;20044;-68
2022/01/03 03:07:27;;;;;;;22.75;15.43;;;;;;;1.65;92.00;98964.88;5023290;28;20087;-68
2022/01/03 03:09:53;;;;;;;21.30;14.82;;;;;;;1.61;91.99;98975.38;4994671;28;20029;-68
2022/01/03 03:12:19;;;;;;;22.23;14.88;;;;;;;0.94;92.72;98904.41;5015228;28;20029;-67
2022/01/03 03:14:45;;;;;;;22.60;15.18;;;;;;;1.23;92.02;98914.09;5049469;28;20843;-67
2022/01/03 03:17:10;;;;;;;21.05;14.98;;;;;;;1.43;92.95;98957.44;5016829;28;20025;-68
2022/01/03 03:19:55;;;;;;;22.02;15.48;;;;;;;0.97;93.93;98888.06;5013263;28;20087;-68
2022/01/03 03:22:24;;;;;;;22.50;14.75;;;;;;;1.49;93.00;98940.94;5051944;28;20033;-69
2022/01/03 03:24:50;;;;;;;23.13;14.52;;;;;;;1.64;92.22;98936.75;5005880;28;20284;-67
2022/01/03 03:27:16;;;;;;;23.10;15.02;;;;;;;1.66;91.79;98930.63;5042251;28;20103;-67
2022/01/03 03:29:43;;;;;;;21.05;14.25;;;;;;;1.66;92.03;98938.31;5025367;28;20025;-67
2022/01/03 03:32:10;;;;;;;21.08;14.43;;;;;;;1.53;93.06;98927.03;5018754;28;20207;-68
2022/01/03 03:34:36;;;;;;;21.98;14.25;;;;;;;1.63;93.53;98943.59;5011511;28;20097;-68
2022/01/03 03:37:01;;;;;;;22.88;14.68;;;;;;;1.63;92.46;98942.78;5052474;28;20503;-67
2022/01/03 03:39:27;;;;;;;22.70;14.63;;;;;;;1.59;92.15;98934.44;5015504;28;20041;-68
2022/01/03 03:41:52;;;;;;;20.70;14.27;;;;;;;1.56;92.15;98936.31;4995807;28;20017;-67
2022/01/03 03:44:17;;;;;;;23.65;15.15;;;;;;;1.50;92.29;98909.28;5021394;28;20432;-68
2022/01/03 03:46:43;;;;;;;18.92;13.80;;;;;;;1.32;91.04;98868.31;5020101;28;20037;-67
2022/01/03 03:49:09;;;;;;;20.52;13.68;;;;;;;1.53;90.80;98891.16;5036096;28;20032;-67
2022/01/03 03:51:38;;;;;;;18.95;13.45;;;;;;;1.54;90.82;98903.91;5021225;28;20506;-68
2022/01/03 03:54:04;;;;;;;22.63;14.48;;;;;;;1.53;91.56;98909.09;5020418;28;20026;-68
2022/01/03 03:56:29;;;;;;;20.70;13.68;;;;;;;1.58;91.05;98902.00;5014265;28;20750;-67
2022/01/03 03:58:56;;;;;;;21.60;14.35;;;;;;;1.52;91.17;98912.59;4997101;28;20071;-68
2022/01/03 04:01:21;;;;;;;23.27;14.25;;;;;;;1.39;92.12;98914.13;5015047;28;20101;-67
2022/01/03 04:03:47;;;;;;;21.42;14.30;;;;;;;1.34;92.39;98911.81;5057889;28;20116;-68
2022/01/03 04:06:12;;;;;;;20.85;13.48;;;;;;;1.51;92.12;98914.31;5018582;28;20026;-68
2022/01/03 04:08:37;;;;;;;20.85;13.23;;;;;;;1.51;91.77;98916.03;5005909;28;20124;-68
2022/01/03 04:11:03;;;;;;;19.38;13.07;;;;;;;1.56;91.52;98916.63;5019167;28;20033;-67
2022/01/03 04:13:28;;;;;;;20.80;14.02;;;;;;;1.26;90.86;98870.38;5008739;28;20040;-68
2022/01/03 04:15:54;;;;;;;20.45;13.50;;;;;;;1.61;90.46;98904.41;5046371;28;20595;-67
2022/01/03 04:18:19;;;;;;;17.45;13.00;;;;;;;1.32;91.61;98901.63;5018327;28;20576;-68
2022/01/03 04:20:44;;;;;;;20.30;13.27;;;;;;;1.05;92.04;98841.59;5019765;28;20728;-67
2022/01/03 04:23:10;;;;;;;21.38;15.07;;;;;;;1.38;90.68;98900.47;5004042;28;20085;-68
2022/01/03 04:25:35;;;;;;;19.77;13.80;;;;;;;1.40;90.69;98913.22;5049298;28;20036;-68
2022/01/03 04:28:00;;;;;;;18.73;13.05;;;;;;;0.61;91.72;98849.78;5044547;28;20440;-67
2022/01/03 04:30:26;;;;;;;21.98;13.85;;;;;;;0.65;93.44;98836.75;5008821;28;20080;-68
2022/01/03 04:32:51;;;;;;;23.25;13.95;;;;;;;1.11;94.25;98884.78;5053647;28;20029;-68
2022/01/03 04:35:17;;;;;;;19.77;13.77;;;;;;;1.27;93.56;98910.47;5035162;28;20013;-68
2022/01/03 04:37:42;;;;;;;20.40;13.77;;;;;;;0.97;92.91;98888.06;5019868;28;20646;-68
2022/01/03 04:40:08;;;;;;;19.20;13.75;;;;;;;0.94;94.88;98890.78;5054486;28;20029;-68
2022/01/03 04:42:34;;;;;;;20.42;14.48;;;;;;;1.13;95.09;98895.78;5034671;28;21812;-68
2022/01/03 04:45:01;;;;;;;18.55;14.32;;;;;;;1.21;94.98;98896.25;5038107;28;20033;-68
2022/01/03 04:47:27;;;;;;;19.70;13.63;;;;;;;1.14;94.63;98892.34;5015224;28;20025;-68
2022/01/03 04:49:52;;;;;;;21.77;13.90;;;;;;;1.18;94.10;98891.25;5045556;28;20025;-67
2022/01/03 04:52:17;;;;;;;19.38;14.23;;;;;;;1.01;93.51;98889.56;5018290;28;20021;-68
2022/01/03 04:54:43;;;;;;;19.58;14.90;;;;;;;1.09;93.28;98872.06;5016452;28;20029;-68
2022/01/03 04:57:08;;;;;;;22.08;15.30;;;;;;;1.18;93.16;98878.44;5018786;28;20068;-67
2022/01/03 04:59:34;;;;;;;20.30;13.85;;;;;;;1.09;92.47;98877.19;4986199;28;20373;-66
2022/01/03 05:02:03;;;;;;;19.55;13.40;;;;;;;1.21;92.54;98878.31;5016151;28;20461;-68
2022/01/03 05:04:28;;;;;;;20.90;13.18;;;;;;;1.15;92.32;98881.19;5019389;28;20026;-67
2022/01/03 05:06:54;;;;;;;18.25;12.50;;;;;;;1.26;93.20;98888.28;5022701;28;20040;-68
2022/01/03 05:09:19;;;;;;;22.23;13.95;;;;;;;1.08;93.33;98870.44;5019718;28;20556;-68
2022/01/03 05:11:44;;;;;;;24.40;13.63;;;;;;;1.16;93.42;98877.72;5022449;28;20044;-67
2022/01/03 05:14:10;;;;;;;18.23;13.02;;;;;;;1.18;92.44;98852.84;5017736;28;20696;-68
2022/01/03 05:16:36;;;;;;;21.50;14.07;;;;;;;0.93;92.76;98859.22;5011774;28;20029;-68
2022/01/03 05:19:01;;;;;;;20.05;13.50;;;;;;;0.94;92.97;98860.88;5022184;28;20674;-68
2022/01/03 05:21:27;;;;;;;19.45;13.60;;;;;;;1.07;93.71;98847.44;5036450;28;20033;-68
2022/01/03 05:23:52;;;;;;;19.35;13.77;;;;;;;1.03;94.82;98831.41;5030562;28;20021;-67
2022/01/03 05:26:18;;;;;;;20.60;13.45;;;;;;;1.31;93.77;98858.16;5049576;28;20065;-68
2022/01/03 05:28:45;;;;;;;22.42;13.70;;;;;;;1.36;92.78;98848.50;5017248;28;20072;-68
2022/01/03 05:31:12;;;;;;;19.23;14.00;;;;;;;1.36;92.20;98832.31;4981848;28;20302;-67
2022/01/03 05:33:37;;;;;;;21.25;13.25;;;;;;;1.48;92.00;98857.28;5006460;28;20041;-68
2022/01/03 05:36:03;;;;;;;18.73;12.35;;;;;;;1.46;92.14;98859.06;5018520;28;20368;-67
2022/01/03 05:38:29;;;;;;;19.77;12.30;;;;;;;1.47;92.12;98832.56;5017355;28;20581;-68
2022/01/03 05:40:54;;;;;;;17.95;12.45;;;;;;;1.09;92.05;98784.97;5016875;28;20025;-67
2022/01/03 05:43:20;;;;;;;20.52;12.80;;;;;;;1.15;92.29;98853.84;5002864;28;20164;-67
2022/01/03 05:45:45;;;;;;;19.67;12.40;;;;;;;1.21;91.81;98829.63;5014126;28;20711;-67
2022/01/03 05:48:11;;;;;;;18.48;12.98;;;;;;;1.25;91.56;98832.88;4970997;28;20112;-68
2022/01/03 05:50:38;;;;;;;21.63;12.88;;;;;;;1.27;91.30;98842.13;5013572;28;20107;-68
2022/01/03 05:53:03;;;;;;;20.27;12.63;;;;;;;1.33;91.30;98856.34;5008760;28;20029;-68
2022/01/03 05:55:29;;;;;;;19.00;12.57;;;;;;;1.25;91.30;98854.19;5017953;28;20360;-67
2022/01/03 05:57:54;;;;;;;18.90;12.43;;;;;;;1.39;91.19;98871.41;5015993;28;20036;-68
2022/01/03 06:00:22;;;;;;;21.48;13.27;;;;;;;1.07;91.23;98827.78;5046784;28;20098;-68
2022/01/03 06:02:52;;;;;;;17.88;12.13;;;;;;;1.40;90.86;98860.22;5006849;28;20065;-69
2022/01/03 06:05:39;;;;;;;20.98;12.45;;;;;;;1.38;91.26;98861.22;5016267;28;20028;-68
2022/01/03 06:08:06;;;;;;;18.88;12.57;;;;;;;1.36;91.09;98884.38;5018592;28;20361;-68
2022/01/03 06:10:31;;;;;;;20.20;12.68;;;;;;;1.44;90.45;98878.84;5017770;28;20041;-68
2022/01/03 06:12:56;;;;;;;21.35;12.70;;;;;;;1.50;89.87;98874.22;5020673;28;20030;-68
2022/01/03 06:15:24;;;;;;;18.48;12.90;;;;;;;1.43;90.82;98879.75;5011341;28;20074;-68
2022/01/03 06:17:50;;;;;;;20.10;13.10;;;;;;;1.24;91.40;98869.63;5049457;28;20414;-68
2022/01/03 06:20:15;;;;;;;20.88;12.77;;;;;;;1.15;92.09;98853.03;4959183;28;20053;-65
2022/01/03 06:22:41;;;;;;;18.65;13.10;;;;;;;0.82;93.56;98850.44;5048630;28;20068;-66
2022/01/03 06:25:07;;;;;;;22.20;14.73;;;;;;;0.76;93.60;98802.94;5001409;28;20396;-68
2022/01/03 06:27:33;;;;;;;19.08;13.60;;;;;;;1.14;93.17;98854.72;5047657;28;20021;-67
2022/01/03 06:29:58;;;;;;;20.02;13.20;;;;;;;1.19;93.00;98853.66;5020722;28;20893;-67
2022/01/03 06:32:23;;;;;;;19.55;12.60;;;;;;;1.27;94.10;98849.78;5016217;28;20033;-67
2022/01/03 06:34:51;;;;;;;18.50;12.45;;;;;;;1.26;94.53;98853.28;4942429;28;20053;-67
2022/01/03 06:37:17;;;;;;;18.70;12.65;;;;;;;1.28;94.59;98854.03;5018102;28;20175;-67
2022/01/03 06:39:42;;;;;;;19.70;13.45;;;;;;;1.01;94.38;98794.81;5023884;28;20109;-68
2022/01/03 06:42:07;;;;;;;18.90;11.95;;;;;;;1.36;92.55;98832.31;5023164;28;20017;-67
2022/01/03 06:44:33;;;;;;;19.17;13.43;;;;;;;1.13;93.47;98839.44;5021339;28;20511;-66
2022/01/03 06:46:58;;;;;;;20.63;13.82;;;;;;;1.19;92.96;98836.56;5023548;28;20051;-67
2022/01/03 06:49:24;;;;;;;20.60;14.65;;;;;;;1.13;93.40;98783.94;5044291;28;20030;-66
2022/01/03 06:51:49;;;;;;;21.20;15.10;;;;;;;1.33;93.43;98812.78;5006817;28;20025;-67
2022/01/03 06:54:14;;;;;;;22.60;15.93;;;;;;;1.08;92.82;98775.66;5014599;28;20034;-67
2022/01/03 06:56:41;;;;;;;23.15;16.05;;;;;;;0.98;92.57;98753.19;4995350;28;20049;-67
2022/01/03 06:59:07;;;;;;;23.88;16.83;;;;;;;1.23;93.21;98807.31;5045966;28;20033;-67
2022/01/03 07:01:33;;;;;;;22.77;15.45;;;;;;;1.36;92.79;98817.75;5003736;28;20030;-67
2022/01/03 07:03:59;;;;;;;23.02;15.27;;;;;;;1.16;92.25;98785.50;5003761;28;20038;-67
2022/01/03 07:06:24;;;;;;;22.25;14.95;;;;;;;1.39;91.83;98835.53;5032591;28;20037;-66
2022/01/03 07:08:50;;;;;;;22.50;15.23;;;;;;;1.06;91.64;98781.75;5023227;28;20033;-67
2022/01/03 07:11:15;;;;;;;21.70;15.35;;;;;;;1.34;91.83;98847.75;5026129;28;20530;-67
2022/01/03 07:13:47;;;;;;;21.67;14.23;;;;;;;1.29;91.88;98832.59;5020547;28;20437;-67
2022/01/03 07:18:56;;;;;;;20.80;13.75;;;;;;;1.32;92.01;98835.00;5023572;28;20095;-67
2022/01/03 07:21:27;;;;;;;23.92;14.50;;;;;;;1.39;91.66;98832.13;5016509;28;20033;-67
2022/01/03 07:23:52;;;;;;;22.38;14.75;;;;;;;1.29;91.16;98829.22;5022017;28;20025;-67
2022/01/03 07:26:18;;;;;;;20.55;14.20;;;;;;;1.32;92.13;98837.56;5048222;28;20040;-68
2022/01/03 07:28:43;;;;;;;22.83;14.75;;;;;;;1.37;91.40;98846.75;5049711;28;20034;-68
2022/01/03 07:31:09;;;;;;;21.10;14.35;;;;;;;1.37;91.18;98832.22;5051447;28;20044;-69
2022/01/03 07:33:34;;;;;;;23.85;14.98;;;;;;;1.32;91.38;98836.75;5056484;28;20037;-67
2022/01/03 07:36:00;;;;;;;21.52;14.90;;;;;;;1.20;91.96;98840.78;5052485;28;20831;-68
2022/01/03 07:38:25;;;;;;;21.30;15.13;;;;;;;1.41;92.06;98851.66;4956998;28;20098;-67
2022/01/03 07:40:50;;;;;;;21.38;14.50;;;;;;;1.40;91.94;98849.97;5017943;28;20057;-69
2022/01/03 07:43:16;;;;;;;21.77;15.20;;;;;;;1.51;91.37;98854.53;5024181;28;20033;-68
2022/01/03 07:45:41;;;;;;;24.95;15.27;;;;;;;1.54;91.82;98847.50;5017440;28;20559;-67
2022/01/03 07:48:06;;;;;;;23.98;15.60;;;;;;;1.62;92.23;98848.84;5034887;28;20029;-68
2022/01/03 07:50:32;;;;;;;21.67;15.63;;;;;;;1.48;93.04;98880.34;5015990;28;20718;-68
2022/01/03 07:52:59;;;;;;;23.85;14.88;;;;;;;1.42;92.44;98867.84;5006157;28;20056;-68
2022/01/03 07:55:26;;;;;;;23.02;14.88;;;;;;;1.62;92.55;98844.53;5022031;28;20079;-68
2022/01/03 07:57:52;;;;;;;22.35;14.75;;;;;;;1.27;92.00;98767.81;5016205;28;20030;-66
2022/01/03 08:00:17;;;;;;;18.95;12.75;;;;;;;1.56;92.06;98826.13;5003150;28;20029;-67
2022/01/03 08:02:43;;;;;;;18.25;13.63;;;;;;;1.77;92.13;98834.38;5045337;28;20030;-67
2022/01/03 08:05:12;;;;;;;19.25;13.48;;;;;;;1.79;91.74;98840.22;5019845;28;20363;-67
2022/01/03 08:07:37;;;;;;;20.88;13.82;;;;;;;1.73;92.13;98838.81;5018981;28;20728;-67
2022/01/03 08:10:05;;;;;;;20.15;13.98;;;;;;;1.64;92.07;98834.19;4985917;28;20033;-67
2022/01/03 08:12:30;;;;;;;20.10;13.43;;;;;;;1.66;92.69;98843.47;5049111;28;20029;-67
2022/01/03 08:14:56;;;;;;;21.38;14.32;;;;;;;1.64;92.87;98867.53;5019968;28;20041;-68
2022/01/03 08:17:21;;;;;;;18.38;13.98;;;;;;;1.69;93.10;98865.53;5023889;28;20037;-68
2022/01/03 08:19:47;;;;;;;19.27;13.23;;;;;;;1.78;93.48;98853.97;5019275;28;20053;-68
2022/01/03 08:22:12;;;;;;;22.77;14.13;;;;;;;1.79;93.88;98859.03;5037919;28;20029;-67
2022/01/03 08:24:38;;;;;;;19.60;13.82;;;;;;;1.68;94.10;98853.63;5050093;28;20470;-67
2022/01/03 08:27:03;;;;;;;20.52;14.68;;;;;;;1.56;94.38;98819.25;4976654;28;20180;-66
2022/01/03 08:29:29;;;;;;;19.27;13.02;;;;;;;1.88;94.23;98860.25;5010177;28;20653;-67
2022/01/03 08:31:54;;;;;;;23.60;15.32;;;;;;;1.71;93.92;98815.00;5017187;28;20030;-67
2022/01/03 08:34:19;;;;;;;19.73;14.23;;;;;;;2.09;92.96;98889.84;5051293;28;20630;-66
2022/01/03 08:36:45;;;;;;;19.25;13.05;;;;;;;2.01;93.37;98879.19;5042473;28;20103;-67
2022/01/03 08:39:10;;;;;;;23.35;14.07;;;;;;;2.19;93.09;98885.06;5011961;28;20025;-67
2022/01/03 08:41:36;;;;;;;21.42;14.00;;;;;;;2.14;93.98;98891.34;4977447;28;20392;-66
2022/01/03 08:44:02;;;;;;;21.63;14.50;;;;;;;2.22;93.75;98890.00;4979289;28;20435;-68
2022/01/03 08:46:28;;;;;;;24.13;15.25;;;;;;;2.10;93.83;98881.25;5011151;28;20025;-67
2022/01/03 08:48:54;;;;;;;20.67;15.57;;;;;;;2.25;94.01;98874.44;5018100;28;20064;-66
2022/01/03 08:51:20;;;;;;;22.67;15.50;;;;;;;2.42;93.92;98862.41;5000040;28;20049;-67
2022/01/03 08:53:45;;;;;;;21.00;14.93;;;;;;;2.44;93.64;98850.31;5043547;28;20400;-67
2022/01/03 08:56:11;;;;;;;22.60;14.98;;;;;;;2.24;94.00;98810.38;5006484;28;20484;-67
2022/01/03 08:58:36;;;;;;;21.60;14.70;;;;;;;2.56;94.09;98847.03;5003169;28;20041;-67
2022/01/03 09:01:02;;;;;;;20.02;14.20;;;;;;;2.60;94.75;98856.22;5024775;28;20131;-67
2022/01/03 09:03:27;;;;;;;19.88;14.15;;;;;;;2.61;94.58;98864.72;5027340;28;20076;-67
2022/01/03 09:05:54;;;;;;;22.05;15.05;;;;;;;2.69;94.68;98885.66;5010817;28;20071;-68
2022/01/03 09:08:22;;;;;;;19.90;14.00;;;;;;;2.77;95.15;98874.94;5045491;28;20127;-67
2022/01/03 09:10:48;;;;;;;29.52;17.77;;;;;;;2.89;95.61;98877.63;5017716;28;20034;-67
2022/01/03 09:13:14;;;;;;;23.42;16.02;;;;;;;2.84;95.13;98887.34;4949091;28;20912;-66
2022/01/03 09:15:44;;;;;;;24.13;16.88;;;;;;;2.70;96.32;98877.03;5013983;28;20492;-66
2022/01/03 09:18:10;;;;;;;22.05;15.48;;;;;;;2.74;96.22;98883.66;5012008;28;20076;-67
2022/01/03 09:20:36;;;;;;;24.50;17.63;;;;;;;2.61;96.71;98870.72;5037713;28;20123;-67
2022/01/03 09:23:09;;;;;;;25.77;17.67;;;;;;;2.82;96.46;98889.19;5012945;28;20115;-67
2022/01/03 09:30:44;;;;;;;24.08;15.65;;;;;;;3.01;97.37;98888.94;4985360;28;20099;-65
2022/01/03 09:33:09;;;;;;;22.40;15.82;;;;;;;3.00;96.84;98882.13;5047764;28;20026;-67
2022/01/03 09:35:36;;;;;;;23.38;15.93;;;;;;;2.81;97.17;98849.00;5006193;28;20124;-66
2022/01/03 09:38:01;;;;;;;22.52;15.75;;;;;;;2.89;96.93;98851.94;5009414;28;20071;-67
2022/01/03 09:40:26;;;;;;;20.73;14.35;;;;;;;3.26;96.61;98910.59;5009839;28;20563;-67
2022/01/03 09:42:57;;;;;;;19.38;15.07;;;;;;;3.24;96.85;98920.16;5012604;28;20030;-66
2022/01/03 09:45:26;;;;;;;20.00;14.45;;;;;;;2.77;95.56;98828.72;4998796;28;20387;-66
2022/01/03 09:47:53;;;;;;;22.45;14.27;;;;;;;3.22;96.46;98917.66;5041825;28;20025;-67
2022/01/03 09:50:21;;;;;;;20.08;14.32;;;;;;;3.20;96.54;98918.69;5044655;28;20030;-67
2022/01/03 09:52:47;;;;;;;23.10;14.48;;;;;;;3.32;96.33;98910.22;5045922;28;20056;-67
2022/01/03 09:55:14;;;;;;;21.23;14.70;;;;;;;3.04;96.24;98847.63;5037287;28;20052;-66
2022/01/03 09:57:43;;;;;;;23.33;15.05;;;;;;;3.13;96.26;98838.56;5043356;28;20034;-66
2022/01/03 10:00:09;;;;;;;19.73;14.35;;;;;;;3.49;95.62;98882.69;4987775;28;20336;-66
2022/01/03 10:02:35;;;;;;;19.50;13.77;;;;;;;3.48;95.84;98876.72;4982551;28;20036;-66
2022/01/03 10:05:00;;;;;;;18.58;14.10;;;;;;;3.58;96.00;98853.88;5045065;28;20095;-67
2022/01/03 10:07:27;;;;;;;18.45;14.02;;;;;;;3.62;95.52;98857.91;5011916;28;20417;-64
2022/01/03 10:09:54;;;;;;;19.52;13.60;;;;;;;3.41;96.09;98849.72;5014021;28;20112;-66
2022/01/03 10:12:19;;;;;;;18.58;13.40;;;;;;;3.63;95.15;98869.81;5002349;28;20478;-66
2022/01/03 10:14:45;;;;;;;17.60;12.77;;;;;;;3.94;95.31;98884.19;5018036;28;20081;-65
2022/01/03 10:17:11;;;;;;;19.00;12.65;;;;;;;4.02;94.18;98888.84;4993030;28;20815;-65
2022/01/03 10:19:57;;;;;;;18.80;12.77;;;;;;;4.03;93.86;98867.31;5013743;28;21727;-66
2022/01/03 10:22:30;;;;;;;17.83;12.35;;;;;;;3.78;93.61;98822.59;5020889;28;20038;-64
2022/01/03 10:24:57;;;;;;;16.25;11.73;;;;;;;4.12;92.77;98879.63;5017472;28;20033;-65
2022/01/03 10:27:25;;;;;;;19.02;12.68;;;;;;;4.12;93.46;98871.06;5047583;28;20033;-65
2022/01/03 10:29:59;;;;;;;17.90;12.30;;;;;;;4.14;92.75;98858.94;5044747;28;20465;-65
2022/01/03 10:32:27;;;;;;;18.90;12.57;;;;;;;4.11;93.23;98843.72;4972594;28;20472;-65
2022/01/03 10:34:57;;;;;;;17.83;12.55;;;;;;;4.15;93.23;98842.56;5013164;28;20419;-66
2022/01/03 10:37:34;;;;;;;19.33;12.00;;;;;;;4.16;92.56;98834.75;5009216;28;20037;-67
2022/01/03 10:40:16;;;;;;;16.52;11.57;;;;;;;4.21;92.30;98829.31;5017213;28;20053;-66
2022/01/03 10:42:42;;;;;;;16.73;11.00;;;;;;;4.24;92.32;98849.72;5017371;28;20473;-66
2022/01/03 10:45:08;;;;;;;19.73;12.63;;;;;;;4.37;93.06;98858.28;5021070;28;20037;-66
2022/01/03 10:47:34;;;;;;;15.55;11.32;;;;;;;4.48;92.27;98852.44;5033799;28;20065;-66
2022/01/03 10:50:12;;;;;;;15.07;11.52;;;;;;;4.63;91.34;98848.84;5010010;28;20697;-67
2022/01/03 10:52:41;;;;;;;17.02;11.52;;;;;;;4.43;89.82;98815.84;5015439;28;20129;-66
2022/01/03 10:55:12;;;;;;;16.13;11.13;;;;;;;4.74;88.57;98862.78;5006039;28;20036;-66
2022/01/03 10:57:57;;;;;;;16.58;11.57;;;;;;;4.76;89.27;98848.88;5016273;28;20263;-66
2022/01/03 11:00:33;;;;;;;17.30;11.90;;;;;;;4.79;90.03;98850.41;4998049;28;20053;-66
2022/01/03 11:03:29;;;;;;;16.95;12.43;;;;;;;4.83;89.71;98836.41;5008486;28;20086;-67
2022/01/03 11:06:14;;;;;;;17.90;11.88;;;;;;;4.82;89.48;98819.31;5030042;28;20107;-66
2022/01/03 11:11:36;;;;;;;17.88;10.98;;;;;;;4.95;89.12;98803.84;5045647;28;20049;-67
2022/01/03 11:14:02;;;;;;;14.57;10.90;;;;;;;5.05;88.88;98797.13;5009284;28;20082;-66
2022/01/03 11:16:41;;;;;;;15.48;10.73;;;;;;;4.89;88.20;98753.56;5002887;28;20026;-65
2022/01/03 11:19:07;;;;;;;15.00;11.07;;;;;;;5.07;87.92;98758.34;4990016;28;20931;-64
2022/01/03 11:21:33;;;;;;;15.43;10.48;;;;;;;4.93;87.81;98739.53;5009937;28;20049;-65
2022/01/03 11:23:59;;;;;;;14.25;10.50;;;;;;;5.18;87.73;98785.06;4996277;28;20036;-66
2022/01/03 11:26:25;;;;;;;12.32;9.18;;;;;;;5.33;85.47;98769.41;5012132;28;20029;-65
2022/01/03 11:28:51;;;;;;;16.05;10.45;;;;;;;5.13;85.62;98725.25;5029177;28;20395;-66
2022/01/03 11:31:19;;;;;;;13.40;10.07;;;;;;;5.50;84.51;98765.66;5058587;28;20025;-66
2022/01/03 11:33:46;;;;;;;15.30;10.60;;;;;;;5.69;84.27;98775.50;5047539;28;20040;-65
2022/01/03 11:36:12;;;;;;;14.88;10.27;;;;;;;5.71;83.82;98753.81;5024436;28;20060;-66
2022/01/03 11:38:40;;;;;;;14.55;10.23;;;;;;;5.66;84.06;98749.91;5053190;28;20029;-66
2022/01/03 11:41:08;;;;;;;15.43;11.07;;;;;;;5.63;85.49;98748.38;5044375;28;20029;-65